Time;durP1;ratioP1;P1;durP2;ratioP2;P2;SDS_P1;SDS_P2;PMS_P1;PMS_P2;Temp;Humidity;BMP_temperature;BMP_pressure;BME280_temperature;BME280_humidity;BME280_pressure;Samples;Min_cycle;Max_cycle;Signal;HPM_P1;HPM_P2
2022/04/15 00:01:45;;;;;;;7.23;6.37;;;14.30;70.80;;;;;;6325954;28;20475;-61
2022/04/15 00:04:48;;;;;;;6.53;5.93;;;14.30;70.90;;;;;;6325656;28;20944;-61
2022/04/15 00:07:52;;;;;;;7.30;6.70;;;14.30;70.80;;;;;;6326167;28;20464;-61
2022/04/15 00:10:57;;;;;;;8.00;6.63;;;14.30;70.80;;;;;;6324980;28;20982;-62
2022/04/15 00:14:06;;;;;;;6.40;5.90;;;14.20;71.30;;;;;;6325068;28;20885;-61
2022/04/15 00:17:10;;;;;;;6.97;6.40;;;14.20;71.70;;;;;;6325202;28;20471;-61
2022/04/15 00:20:13;;;;;;;7.07;6.47;;;14.20;72.10;;;;;;6324905;28;20464;-62
2022/04/15 00:23:18;;;;;;;7.93;6.20;;;14.10;72.40;;;;;;6324496;28;20481;-62
2022/04/15 00:26:21;;;;;;;6.90;6.23;;;14.10;73.10;;;;;;6319838;28;20994;-62
2022/04/15 00:29:24;;;;;;;6.57;6.07;;;14.00;73.20;;;;;;6324846;28;20464;-62
2022/04/15 00:32:28;;;;;;;6.40;5.90;;;14.00;73.50;;;;;;6324381;28;20476;-62
2022/04/15 00:35:32;;;;;;;6.40;5.90;;;14.00;73.50;;;;;;6324681;28;20988;-62
2022/04/15 00:38:35;;;;;;;8.13;6.70;;;14.00;73.70;;;;;;6324003;28;20477;-62
2022/04/15 00:41:42;;;;;;;7.93;7.13;;;14.00;74.60;;;;;;6324612;28;20468;-62
2022/04/15 00:44:45;;;;;;;8.90;6.53;;;14.00;74.00;;;;;;6324402;28;20495;-68
2022/04/15 00:47:52;;;;;;;6.03;5.53;;;14.10;74.20;;;;;;6324514;28;20476;-61
2022/04/15 00:50:55;;;;;;;6.33;5.80;;;14.00;74.20;;;;;;6326470;28;20465;-61
2022/04/15 00:53:59;;;;;;;8.53;6.30;;;14.10;74.40;;;;;;6326857;28;20498;-61
2022/04/15 00:57:03;;;;;;;7.13;6.47;;;14.00;74.40;;;;;;6328049;28;20444;-62
2022/04/15 01:00:08;;;;;;;6.97;6.37;;;14.00;74.70;;;;;;6329875;28;20444;-62
2022/04/15 01:03:17;;;;;;;9.20;6.40;;;14.00;74.80;;;;;;6331267;28;20479;-62
2022/04/15 01:06:23;;;;;;;6.50;5.90;;;14.00;75.20;;;;;;6331323;28;20457;-62
2022/04/15 01:09:28;;;;;;;8.07;5.93;;;14.00;75.20;;;;;;6328350;28;20464;-62
2022/04/15 01:12:32;;;;;;;7.37;6.67;;;14.00;75.50;;;;;;6327894;28;20468;-62
2022/04/15 01:15:35;;;;;;;7.30;6.70;;;14.00;75.80;;;;;;6327945;28;20468;-62
2022/04/15 01:18:41;;;;;;;7.90;6.83;;;13.90;75.90;;;;;;6327556;28;20480;-60
2022/04/15 01:21:46;;;;;;;7.80;6.57;;;13.90;76.10;;;;;;6328406;28;20483;-60
2022/04/15 01:24:51;;;;;;;6.97;6.30;;;13.90;76.40;;;;;;6329644;28;20502;-61
2022/04/15 01:27:54;;;;;;;7.83;7.20;;;13.90;76.80;;;;;;6325364;28;20490;-61
2022/04/15 01:30:57;;;;;;;6.83;6.27;;;13.90;77.20;;;;;;6329726;28;20483;-61
2022/04/15 01:34:00;;;;;;;7.20;6.60;;;13.80;77.50;;;;;;6341145;28;20476;-61
2022/04/15 01:37:05;;;;;;;7.43;6.80;;;13.90;78.30;;;;;;6336902;28;20483;-61
2022/04/15 01:40:11;;;;;;;7.63;6.30;;;13.90;78.20;;;;;;6326070;28;20476;-61
2022/04/15 01:43:14;;;;;;;7.87;7.17;;;13.90;78.30;;;;;;6327777;28;20469;-62
2022/04/15 01:46:17;;;;;;;6.77;6.17;;;13.90;78.20;;;;;;6328353;28;20774;-62
2022/04/15 01:49:21;;;;;;;8.77;7.10;;;13.90;78.50;;;;;;6328889;28;20468;-62
2022/04/15 01:52:24;;;;;;;6.97;6.37;;;13.90;78.60;;;;;;6328342;28;20475;-62
2022/04/15 01:55:31;;;;;;;8.47;7.67;;;14.00;79.50;;;;;;6329271;28;20476;-62
2022/04/15 01:58:35;;;;;;;7.67;6.90;;;13.90;78.60;;;;;;6328977;28;20965;-62
2022/04/15 02:01:38;;;;;;;7.50;6.80;;;13.90;79.40;;;;;;6329013;28;20472;-62
2022/04/15 02:04:41;;;;;;;6.80;6.20;;;13.90;80.30;;;;;;6328320;28;20468;-62
2022/04/15 02:07:44;;;;;;;8.30;7.57;;;13.90;80.80;;;;;;6328245;28;20476;-62
2022/04/15 02:10:49;;;;;;;7.80;7.10;;;13.90;81.10;;;;;;6327899;28;20475;-63
2022/04/15 02:13:52;;;;;;;8.87;7.10;;;13.90;81.10;;;;;;6327718;28;20474;-63
2022/04/15 02:16:55;;;;;;;8.83;6.90;;;14.00;81.00;;;;;;6327748;28;20908;-63
2022/04/15 02:19:58;;;;;;;6.63;6.10;;;14.00;80.90;;;;;;6326444;28;20562;-63
2022/04/15 02:23:01;;;;;;;6.90;6.30;;;14.00;80.90;;;;;;6325691;28;20476;-63
2022/04/15 02:26:06;;;;;;;7.27;6.63;;;13.90;81.30;;;;;;6325855;28;20487;-63
2022/04/15 02:29:10;;;;;;;8.67;6.43;;;13.90;81.40;;;;;;6325685;28;20469;-62
2022/04/15 02:32:13;;;;;;;7.80;7.10;;;14.00;81.30;;;;;;6316219;28;20496;-63
2022/04/15 02:35:16;;;;;;;6.67;6.03;;;14.00;81.00;;;;;;6326026;28;20472;-62
2022/04/15 02:38:19;;;;;;;8.00;7.20;;;14.00;81.10;;;;;;6326048;28;20483;-62
2022/04/15 02:41:23;;;;;;;6.90;6.20;;;14.00;81.00;;;;;;6327885;28;20479;-62
2022/04/15 02:44:27;;;;;;;6.80;5.93;;;14.00;81.30;;;;;;6326751;28;20483;-62
2022/04/15 02:47:30;;;;;;;12.10;6.30;;;13.90;81.10;;;;;;6325972;28;20472;-62
2022/04/15 02:50:33;;;;;;;8.57;6.00;;;13.90;81.60;;;;;;6325970;28;20483;-62
2022/04/15 02:53:36;;;;;;;7.40;6.70;;;13.90;81.50;;;;;;6325578;28;20476;-62
2022/04/15 02:56:41;;;;;;;8.20;7.00;;;13.90;81.40;;;;;;6324957;28;20894;-62
2022/04/15 02:59:44;;;;;;;7.70;6.83;;;13.90;80.80;;;;;;6325980;28;20558;-61
2022/04/15 03:02:47;;;;;;;7.03;6.47;;;13.80;81.90;;;;;;6326830;28;20469;-61
2022/04/15 03:05:50;;;;;;;7.47;6.70;;;13.80;82.00;;;;;;6326800;28;20480;-61
2022/04/15 03:08:55;;;;;;;8.27;7.47;;;13.70;82.30;;;;;;6326407;28;20784;-61
2022/04/15 03:11:59;;;;;;;8.33;7.67;;;13.70;82.60;;;;;;6326318;28;20499;-61
2022/04/15 03:15:02;;;;;;;8.00;7.20;;;13.70;82.60;;;;;;6326107;28;20765;-61
2022/04/15 03:18:06;;;;;;;8.40;7.20;;;13.70;82.80;;;;;;6329864;28;20444;-61
2022/04/15 03:21:09;;;;;;;7.73;7.00;;;13.80;83.00;;;;;;6328296;28;20440;-61
2022/04/15 03:24:12;;;;;;;8.20;6.47;;;13.80;82.90;;;;;;6326332;28;20485;-62
2022/04/15 03:27:16;;;;;;;7.07;6.57;;;13.70;83.10;;;;;;6326769;28;20440;-62
2022/04/15 03:30:20;;;;;;;7.20;6.50;;;13.70;83.40;;;;;;6327108;28;20496;-62
2022/04/15 03:33:23;;;;;;;7.60;6.90;;;13.70;83.70;;;;;;6317527;28;20469;-62
2022/04/15 03:36:26;;;;;;;7.20;6.50;;;13.70;83.90;;;;;;6325846;28;20824;-62
2022/04/15 03:39:29;;;;;;;7.77;7.03;;;13.70;84.00;;;;;;6326240;28;20464;-62
2022/04/15 03:42:44;;;;;;;9.03;7.53;;;13.70;84.10;;;;;;6325519;28;20948;-62
2022/04/15 03:45:47;;;;;;;7.30;6.70;;;13.70;84.40;;;;;;6325883;28;20469;-63
2022/04/15 03:48:50;;;;;;;10.57;7.73;;;13.70;84.40;;;;;;6325921;28;20487;-63
2022/04/15 03:51:53;;;;;;;9.07;8.27;;;13.60;84.60;;;;;;6326206;28;20554;-62
2022/04/15 03:54:58;;;;;;;8.03;7.03;;;13.60;85.10;;;;;;6326405;28;20464;-63
2022/04/15 03:58:02;;;;;;;8.07;7.27;;;13.60;85.20;;;;;;6328411;28;20945;-62
2022/04/15 04:01:05;;;;;;;7.50;6.70;;;13.60;85.30;;;;;;6328345;28;20472;-61
2022/04/15 04:04:08;;;;;;;8.33;7.00;;;13.60;85.60;;;;;;6327723;28;20980;-62
2022/04/15 04:07:11;;;;;;;10.03;8.50;;;13.50;85.80;;;;;;6326576;28;20460;-62
2022/04/15 04:10:15;;;;;;;9.70;7.77;;;13.40;87.30;;;;;;6326066;28;20480;-62
2022/04/15 04:13:19;;;;;;;12.70;7.33;;;13.40;87.00;;;;;;6325598;28;20492;-61
2022/04/15 04:16:23;;;;;;;10.83;7.90;;;13.30;87.50;;;;;;6325012;28;20473;-62
2022/04/15 04:19:26;;;;;;;8.13;7.30;;;13.30;87.90;;;;;;6324984;28;20473;-60
2022/04/15 04:22:30;;;;;;;8.50;7.80;;;13.30;88.40;;;;;;6324884;28;20558;-62
2022/04/15 04:25:33;;;;;;;8.17;7.37;;;13.30;88.40;;;;;;6325077;28;20468;-62
2022/04/15 04:28:37;;;;;;;8.43;7.63;;;13.40;88.50;;;;;;6324680;28;20804;-64
2022/04/15 04:31:40;;;;;;;8.90;7.00;;;13.40;88.50;;;;;;6324211;28;20468;-63
2022/04/15 04:34:43;;;;;;;9.23;7.30;;;13.50;88.60;;;;;;6324841;28;20496;-64
2022/04/15 04:37:47;;;;;;;9.20;8.30;;;13.50;88.50;;;;;;6319813;28;21154;-64
2022/04/15 04:40:50;;;;;;;7.80;7.10;;;13.50;88.60;;;;;;6323523;28;20472;-63
2022/04/15 04:43:55;;;;;;;8.50;7.70;;;13.60;88.40;;;;;;6324052;28;20468;-64
2022/04/15 04:46:59;;;;;;;8.00;7.20;;;13.60;88.10;;;;;;6323809;28;20463;-64
2022/04/15 04:50:02;;;;;;;7.97;7.37;;;13.70;88.20;;;;;;6323355;28;20558;-64
2022/04/15 04:53:05;;;;;;;9.07;8.03;;;13.70;88.10;;;;;;6324195;28;20488;-63
2022/04/15 04:56:09;;;;;;;9.10;7.13;;;13.80;88.00;;;;;;6324797;28;20471;-64
2022/04/15 04:59:13;;;;;;;8.13;7.30;;;13.70;88.10;;;;;;6324648;28;20467;-64
2022/04/15 05:02:16;;;;;;;8.67;7.37;;;13.80;88.50;;;;;;6324625;28;20471;-64
2022/04/15 05:05:19;;;;;;;9.47;8.53;;;13.90;88.70;;;;;;6324580;28;20476;-64
2022/04/15 05:08:23;;;;;;;9.20;8.50;;;14.00;88.20;;;;;;6326937;28;20487;-64
2022/04/15 05:11:26;;;;;;;9.47;8.67;;;14.10;88.10;;;;;;6325001;28;20843;-64
2022/04/15 05:14:30;;;;;;;10.97;9.93;;;14.20;87.80;;;;;;6324406;28;20468;-63
2022/04/15 05:17:33;;;;;;;10.43;9.43;;;14.30;87.70;;;;;;6324931;28;20472;-64
2022/04/15 05:20:37;;;;;;;13.70;10.07;;;14.40;87.80;;;;;;6324833;28;20476;-64
2022/04/15 05:23:40;;;;;;;11.50;9.70;;;14.40;88.30;;;;;;6324122;28;20496;-64
2022/04/15 05:26:43;;;;;;;16.67;10.13;;;14.40;87.40;;;;;;6324097;28;20802;-64
2022/04/15 05:29:48;;;;;;;11.10;9.93;;;14.30;87.20;;;;;;6324263;28;20480;-64
2022/04/15 05:32:51;;;;;;;10.10;8.60;;;14.40;87.50;;;;;;6324756;28;20477;-63
2022/04/15 05:35:54;;;;;;;10.83;9.40;;;14.50;87.20;;;;;;6324966;28;20468;-64
2022/04/15 05:38:57;;;;;;;10.57;9.57;;;14.60;87.20;;;;;;6324220;28;20468;-64
2022/04/15 05:42:00;;;;;;;11.07;9.87;;;14.80;87.40;;;;;;6319563;28;20445;-63
2022/04/15 05:45:06;;;;;;;11.13;9.90;;;14.90;86.20;;;;;;6328557;28;20893;-64
2022/04/15 05:48:09;;;;;;;12.40;9.03;;;15.00;85.40;;;;;;6328887;28;20448;-64
2022/04/15 05:51:12;;;;;;;11.77;9.50;;;15.20;84.90;;;;;;6329411;28;20443;-65
2022/04/15 05:54:15;;;;;;;10.70;9.57;;;15.40;84.40;;;;;;6328535;28;20468;-65
2022/04/15 05:57:19;;;;;;;11.77;10.67;;;15.60;83.20;;;;;;6329071;28;20530;-64
2022/04/15 06:00:25;;;;;;;13.67;10.77;;;15.70;82.70;;;;;;6328852;28;20464;-64
2022/04/15 06:03:32;;;;;;;10.33;9.00;;;15.80;82.40;;;;;;6329138;28;20472;-65
2022/04/15 06:06:35;;;;;;;11.00;9.87;;;15.80;82.30;;;;;;6328883;28;21007;-63
2022/04/15 06:09:38;;;;;;;11.93;10.10;;;15.70;83.20;;;;;;6328729;28;20479;-64
2022/04/15 06:13:04;;;;;;;11.57;10.43;;;15.70;82.40;;;;;;6328549;28;20473;-64
2022/04/15 06:16:09;;;;;;;11.53;10.40;;;15.70;83.00;;;;;;6328250;28;20473;-63
2022/04/15 06:19:13;;;;;;;10.83;9.73;;;15.80;83.20;;;;;;6328389;28;20535;-65
2022/04/15 06:22:26;;;;;;;11.60;10.60;;;15.90;82.60;;;;;;6328867;28;20484;-64
2022/04/15 06:25:29;;;;;;;16.93;11.67;;;16.10;82.40;;;;;;6328608;28;20483;-63
2022/04/15 06:28:33;;;;;;;12.30;11.30;;;16.40;81.30;;;;;;6328336;28;20488;-64
2022/04/15 06:31:38;;;;;;;12.50;10.60;;;16.60;80.80;;;;;;6328103;28;20468;-65
2022/04/15 06:34:41;;;;;;;11.97;10.63;;;16.90;79.10;;;;;;6327575;28;20957;-65
2022/04/15 06:37:44;;;;;;;15.03;11.00;;;17.10;78.20;;;;;;6327762;28;20480;-64
2022/04/15 06:40:47;;;;;;;11.43;10.00;;;17.30;77.60;;;;;;6326967;28;20990;-64
2022/04/15 06:43:50;;;;;;;12.93;10.73;;;18.00;77.10;;;;;;6326740;28;20547;-63
2022/04/15 06:46:55;;;;;;;12.07;10.43;;;18.50;74.30;;;;;;6313651;28;20237;-64
2022/04/15 06:49:58;;;;;;;19.97;10.77;;;18.50;74.10;;;;;;6325783;28;20472;-64
2022/04/15 06:53:01;;;;;;;12.33;10.00;;;18.40;73.50;;;;;;6320811;28;20222;-65
2022/04/15 06:56:05;;;;;;;11.83;10.70;;;18.40;73.80;;;;;;6328139;28;20225;-65
2022/04/15 06:59:08;;;;;;;14.63;11.17;;;19.10;73.50;;;;;;6337007;28;20230;-64
2022/04/15 07:02:12;;;;;;;12.97;11.23;;;19.70;70.40;;;;;;6328329;28;20231;-64
2022/04/15 07:05:16;;;;;;;13.00;11.80;;;20.10;68.50;;;;;;6326956;28;20360;-65
2022/04/15 07:08:19;;;;;;;12.43;11.23;;;20.80;65.90;;;;;;6326693;28;20222;-65
2022/04/15 07:11:22;;;;;;;19.80;11.83;;;20.90;64.20;;;;;;6326503;28;20241;-65
2022/04/15 07:14:25;;;;;;;12.93;11.63;;;20.70;64.00;;;;;;6326450;28;20260;-66
2022/04/15 07:17:30;;;;;;;16.10;12.40;;;20.30;63.70;;;;;;6326961;28;20234;-64
2022/04/15 07:20:33;;;;;;;13.60;12.40;;;20.20;64.50;;;;;;6326334;28;20245;-64
2022/04/15 07:23:36;;;;;;;15.00;13.00;;;20.10;64.30;;;;;;6326094;28;20242;-64
2022/04/15 07:26:39;;;;;;;15.43;13.83;;;20.00;64.50;;;;;;6325977;28;20226;-64
2022/04/15 07:29:44;;;;;;;16.63;14.03;;;20.10;64.70;;;;;;6326073;28;20226;-64
2022/04/15 07:32:49;;;;;;;13.60;11.63;;;20.40;63.70;;;;;;6325771;28;20269;-63
2022/04/15 07:35:52;;;;;;;14.60;13.13;;;20.50;63.70;;;;;;6325808;28;20230;-63
2022/04/15 07:38:55;;;;;;;15.43;13.83;;;20.50;62.60;;;;;;6325643;28;20226;-63
2022/04/15 07:41:58;;;;;;;16.03;14.00;;;20.40;62.90;;;;;;6325064;28;20666;-63
2022/04/15 07:45:02;;;;;;;20.93;14.63;;;20.40;63.10;;;;;;6325300;28;20244;-64
2022/04/15 07:48:07;;;;;;;15.40;13.90;;;20.30;64.00;;;;;;6321138;28;20379;-64
2022/04/15 07:51:11;;;;;;;14.70;13.20;;;20.30;63.70;;;;;;6326018;28;20186;-64
2022/04/15 07:54:14;;;;;;;12.47;11.27;;;20.30;63.40;;;;;;6326002;28;20218;-64
2022/04/15 07:57:18;;;;;;;12.33;11.23;;;20.30;63.10;;;;;;6325960;28;20198;-64
2022/04/15 08:00:21;;;;;;;13.97;12.37;;;20.10;63.20;;;;;;6326267;28;20227;-65
2022/04/15 08:03:26;;;;;;;14.07;11.80;;;19.90;64.30;;;;;;6325698;28;20230;-64
2022/04/15 08:06:30;;;;;;;15.20;13.60;;;19.70;65.80;;;;;;6324513;28;20241;-64
2022/04/15 08:09:33;;;;;;;14.07;12.67;;;19.40;69.20;;;;;;6325338;28;20539;-64
2022/04/15 08:12:37;;;;;;;14.43;13.10;;;19.00;71.60;;;;;;6325081;28;20234;-62
2022/04/15 08:15:41;;;;;;;23.10;14.30;;;18.80;73.70;;;;;;6325396;28;20238;-63
2022/04/15 08:18:45;;;;;;;15.93;13.43;;;18.40;75.60;;;;;;6325300;28;20245;-62
2022/04/15 08:21:49;;;;;;;18.80;14.83;;;18.20;78.50;;;;;;6325337;28;20230;-62
2022/04/15 08:24:54;;;;;;;14.60;13.10;;;17.90;82.90;;;;;;6324901;28;20245;-63
2022/04/15 08:27:57;;;;;;;14.90;13.57;;;17.70;85.40;;;;;;6324894;28;20576;-63
2022/04/15 08:31:01;;;;;;;16.23;14.77;;;17.60;88.20;;;;;;6325071;28;20468;-61
2022/04/15 08:34:06;;;;;;;16.63;15.03;;;17.70;89.90;;;;;;6324910;28;20475;-63
2022/04/15 08:37:09;;;;;;;16.40;14.53;;;17.70;90.90;;;;;;6324741;28;20803;-63
2022/04/15 08:40:13;;;;;;;16.70;14.90;;;17.80;91.30;;;;;;6324571;28;20944;-62
2022/04/15 08:43:16;;;;;;;16.73;15.03;;;17.80;91.50;;;;;;6323928;28;20222;-62
2022/04/15 08:46:21;;;;;;;16.53;15.10;;;17.90;91.90;;;;;;6325010;28;20234;-63
2022/04/15 08:49:27;;;;;;;17.07;15.37;;;17.90;92.40;;;;;;6330557;28;20479;-63
2022/04/15 08:52:31;;;;;;;17.87;16.40;;;17.90;93.00;;;;;;6324991;28;20523;-63
2022/04/15 08:55:34;;;;;;;16.37;14.97;;;17.90;93.30;;;;;;6324070;28;21000;-63
2022/04/15 08:58:37;;;;;;;16.90;15.40;;;17.90;93.70;;;;;;6323641;28;20231;-63
2022/04/15 09:01:40;;;;;;;16.70;15.30;;;17.90;93.80;;;;;;6323695;28;20757;-62
2022/04/15 09:04:48;;;;;;;17.50;15.90;;;17.90;93.90;;;;;;6323936;28;20488;-62
2022/04/15 09:08:01;;;;;;;17.77;15.93;;;17.90;93.40;;;;;;6318808;28;20227;-62
2022/04/15 09:11:06;;;;;;;18.50;17.00;;;17.90;93.30;;;;;;6321330;28;20468;-63
2022/04/15 09:14:12;;;;;;;16.53;14.90;;;18.00;93.70;;;;;;6324081;28;20491;-63
2022/04/15 09:17:15;;;;;;;18.73;16.13;;;18.00;92.70;;;;;;6324231;28;20468;-63
2022/04/15 09:20:20;;;;;;;16.80;15.03;;;18.10;92.40;;;;;;6330582;28;20225;-62
2022/04/15 09:23:27;;;;;;;20.57;16.13;;;18.20;91.80;;;;;;6327973;28;20582;-62
2022/04/15 09:26:30;;;;;;;15.67;14.00;;;18.30;91.70;;;;;;6329871;28;20222;-60
2022/04/15 09:29:34;;;;;;;15.60;14.30;;;18.40;91.60;;;;;;6328626;28;20233;-61
2022/04/15 09:32:41;;;;;;;15.60;14.03;;;18.50;91.50;;;;;;6328658;28;20242;-62
2022/04/15 09:35:46;;;;;;;15.17;13.73;;;18.60;90.60;;;;;;6328754;28;20233;-61
2022/04/15 09:38:50;;;;;;;15.90;14.30;;;18.70;90.60;;;;;;6328909;28;20256;-62
2022/04/15 09:41:55;;;;;;;15.87;14.23;;;18.60;90.20;;;;;;6328355;28;20682;-60
2022/04/15 09:45:01;;;;;;;16.33;14.50;;;18.50;90.00;;;;;;6328394;28;20233;-60
2022/04/15 09:48:05;;;;;;;14.80;13.50;;;18.30;90.00;;;;;;6327309;28;20215;-61
2022/04/15 09:51:20;;;;;;;15.60;14.20;;;18.20;90.20;;;;;;6327875;28;20211;-60
2022/04/15 09:54:24;;;;;;;15.10;13.50;;;18.10;90.30;;;;;;6328405;28;20235;-61
2022/04/15 09:57:33;;;;;;;16.40;14.90;;;18.10;90.80;;;;;;6327508;28;20222;-61
2022/04/15 10:00:38;;;;;;;17.97;14.20;;;18.00;90.90;;;;;;6328294;28;20241;-61
2022/04/15 10:03:45;;;;;;;16.20;14.70;;;17.90;91.40;;;;;;6327815;28;20678;-61
2022/04/15 10:06:51;;;;;;;15.73;14.27;;;17.80;91.40;;;;;;6303432;28;20484;-62
2022/04/15 10:09:55;;;;;;;15.20;13.60;;;17.60;91.70;;;;;;6302538;28;20538;-61
2022/04/15 10:13:00;;;;;;;13.30;12.10;;;17.70;91.90;;;;;;6302299;28;21010;-61
2022/04/15 10:16:05;;;;;;;16.57;15.17;;;17.70;92.00;;;;;;6302513;28;20473;-61
2022/04/15 10:19:09;;;;;;;15.73;14.30;;;17.70;92.80;;;;;;6302604;28;20480;-61
2022/04/15 10:22:15;;;;;;;14.27;12.80;;;17.70;93.50;;;;;;6313587;28;20476;-61
2022/04/15 10:25:18;;;;;;;16.60;15.03;;;17.60;93.60;;;;;;6327227;28;20483;-61
2022/04/15 10:28:38;;;;;;;15.70;14.13;;;17.40;94.30;;;;;;6327327;28;20476;-61
2022/04/15 10:31:43;;;;;;;15.80;14.27;;;17.30;95.40;;;;;;6326519;28;20479;-61
2022/04/15 10:34:48;;;;;;;15.47;14.03;;;17.30;95.80;;;;;;6330009;28;20468;-62
2022/04/15 10:38:01;;;;;;;15.23;13.97;;;17.20;96.20;;;;;;6336595;28;20465;-62
2022/04/15 10:41:14;;;;;;;15.80;14.40;;;17.20;96.60;;;;;;6328451;28;20477;-62
2022/04/15 10:44:37;;;;;;;14.80;13.60;;;17.20;97.00;;;;;;6327716;28;20951;-62
2022/04/15 10:47:57;;;;;;;15.07;13.77;;;17.20;97.30;;;;;;6327175;28;20491;-62
2022/04/15 10:51:21;;;;;;;15.23;13.87;;;17.30;97.80;;;;;;6327013;28;20923;-61
2022/04/15 10:54:42;;;;;;;16.80;14.80;;;17.30;97.50;;;;;;6327284;28;20473;-61
2022/04/15 10:57:46;;;;;;;15.53;14.20;;;17.30;98.00;;;;;;6326606;28;20484;-62
2022/04/15 11:01:17;;;;;;;15.57;13.73;;;17.40;98.00;;;;;;6317129;28;20496;-62
2022/04/15 11:04:24;;;;;;;15.03;13.60;;;17.30;98.10;;;;;;6326393;28;20964;-61
2022/04/15 11:07:29;;;;;;;16.03;14.53;;;17.20;98.30;;;;;;6326364;28;20502;-61
2022/04/15 11:11:03;;;;;;;17.33;15.80;;;17.30;98.10;;;;;;6326338;28;20992;-62
2022/04/15 11:14:08;;;;;;;15.57;14.27;;;17.70;98.20;;;;;;6321952;28;20476;-63
2022/04/15 11:17:14;;;;;;;15.20;13.90;;;18.20;97.70;;;;;;6325794;28;20999;-63
2022/04/15 11:20:17;;;;;;;15.93;14.70;;;18.40;96.80;;;;;;6323036;28;20237;-61
2022/04/15 11:23:20;;;;;;;15.10;14.00;;;18.50;95.90;;;;;;6324433;28;20249;-62
2022/04/15 11:26:26;;;;;;;15.80;14.50;;;18.40;94.90;;;;;;6324904;28;20227;-61
2022/04/15 11:29:30;;;;;;;15.90;14.20;;;18.40;95.30;;;;;;6325742;28;20248;-60
2022/04/15 11:32:46;;;;;;;14.53;13.30;;;18.50;95.90;;;;;;6326943;28;20694;-61
2022/04/15 11:35:49;;;;;;;16.60;14.90;;;18.70;95.40;;;;;;6325423;28;20230;-61
2022/04/15 11:38:52;;;;;;;17.17;15.73;;;18.90;94.70;;;;;;6324862;28;20256;-61
2022/04/15 11:41:58;;;;;;;16.57;15.00;;;19.00;94.30;;;;;;6325487;28;20229;-62
2022/04/15 11:45:07;;;;;;;15.43;14.13;;;19.10;93.90;;;;;;6327788;28;20210;-62
2022/04/15 11:48:20;;;;;;;16.23;14.83;;;19.30;92.90;;;;;;6324543;28;20642;-63
2022/04/15 11:51:25;;;;;;;16.73;15.33;;;20.00;92.70;;;;;;6323668;28;20432;-62
2022/04/15 11:54:32;;;;;;;16.17;14.80;;;20.50;91.00;;;;;;6325098;28;20479;-63
2022/04/15 11:57:38;;;;;;;16.17;14.67;;;20.60;90.00;;;;;;6325066;28;20237;-62
2022/04/15 12:00:42;;;;;;;16.27;14.77;;;20.70;90.00;;;;;;6324770;28;20827;-62
2022/04/15 12:03:45;;;;;;;16.07;14.80;;;20.80;89.60;;;;;;6323479;28;20245;-63
2022/04/15 12:06:49;;;;;;;16.63;15.13;;;20.80;88.90;;;;;;6324556;28;20222;-63
2022/04/15 12:09:53;;;;;;;17.10;15.60;;;20.70;88.60;;;;;;6324230;28;20583;-63
2022/04/15 12:12:58;;;;;;;17.47;15.70;;;20.40;89.70;;;;;;6324289;28;20241;-63
2022/04/15 12:16:01;;;;;;;16.47;14.97;;;20.20;89.90;;;;;;6324655;28;20226;-63
2022/04/15 12:19:05;;;;;;;18.90;17.13;;;20.20;90.00;;;;;;6325139;28;20237;-63
2022/04/15 12:22:09;;;;;;;16.20;14.80;;;20.40;90.30;;;;;;6323405;28;20715;-61
2022/04/15 12:25:16;;;;;;;16.30;14.97;;;20.80;88.80;;;;;;6324368;28;20234;-61
2022/04/15 12:31:43;;;;;;;16.17;14.87;;;21.20;85.10;;;;;;6323298;28;20227;-61
2022/04/15 12:34:49;;;;;;;19.33;17.63;;;21.10;86.40;;;;;;6323797;28;20279;-61
2022/04/15 12:38:00;;;;;;;17.93;16.50;;;21.10;86.70;;;;;;6324422;28;20227;-61
2022/04/15 12:41:11;;;;;;;15.83;14.47;;;20.90;87.00;;;;;;6325031;28;20222;-61
2022/04/15 12:44:18;;;;;;;17.40;15.90;;;21.00;88.00;;;;;;6324195;28;20230;-61
2022/04/15 12:47:26;;;;;;;19.47;17.00;;;20.80;89.40;;;;;;6323793;28;20233;-61
2022/04/15 12:50:33;;;;;;;18.37;16.87;;;20.90;88.80;;;;;;6323534;28;20238;-62
2022/04/15 12:53:37;;;;;;;17.80;16.23;;;21.00;87.00;;;;;;6326242;28;20257;-61
2022/04/15 12:56:54;;;;;;;17.90;16.40;;;21.00;88.00;;;;;;6328092;28;20237;-62
2022/04/15 13:00:00;;;;;;;17.97;16.57;;;21.10;86.60;;;;;;6329446;28;20222;-62
2022/04/15 13:03:04;;;;;;;18.70;17.20;;;21.10;85.50;;;;;;6329674;28;20226;-62
2022/04/15 13:06:09;;;;;;;16.27;15.07;;;21.00;84.90;;;;;;6332610;28;20217;-62
2022/04/15 13:09:13;;;;;;;16.73;15.40;;;21.00;85.20;;;;;;6320352;28;20241;-63
2022/04/15 13:12:17;;;;;;;18.90;17.40;;;21.20;85.70;;;;;;6329417;28;20225;-61
2022/04/15 13:15:23;;;;;;;17.07;15.70;;;21.20;84.60;;;;;;6328680;28;20235;-62
2022/04/15 13:18:27;;;;;;;15.93;14.60;;;21.00;84.30;;;;;;6328294;28;20226;-62
2022/04/15 13:21:30;;;;;;;17.60;16.30;;;21.10;85.20;;;;;;6328314;28;20225;-62
2022/04/15 13:57:01;;;;;;;18.23;16.73;;;20.90;86.20;;;;;;6117605;29;20569;-62
2022/04/15 14:00:06;;;;;;;18.07;16.57;;;20.90;86.70;;;;;;6129934;29;20235;-63
2022/04/15 14:03:10;;;;;;;18.33;16.73;;;20.70;86.90;;;;;;6130550;29;20232;-64
2022/04/15 14:06:14;;;;;;;17.30;15.80;;;20.80;87.20;;;;;;6130137;29;20196;-61
2022/04/15 14:09:21;;;;;;;17.47;16.07;;;20.90;86.10;;;;;;6130411;29;20734;-60
2022/04/15 14:12:25;;;;;;;18.40;16.90;;;21.00;85.20;;;;;;6122775;29;20242;-60
2022/04/15 14:15:29;;;;;;;18.87;17.30;;;21.20;84.30;;;;;;6134396;29;20238;-60
2022/04/15 14:18:33;;;;;;;18.47;16.87;;;21.00;84.70;;;;;;6135154;29;20230;-60
2022/04/15 14:21:36;;;;;;;17.73;16.13;;;20.80;86.10;;;;;;6132551;29;20242;-61
2022/04/15 14:24:41;;;;;;;17.37;15.97;;;20.50;85.90;;;;;;6131247;29;20244;-61
2022/04/15 14:27:46;;;;;;;16.33;14.93;;;20.50;85.70;;;;;;6130914;29;20239;-62
2022/04/15 14:30:49;;;;;;;14.53;13.40;;;20.50;85.70;;;;;;6130654;29;20262;-63
2022/04/15 14:33:53;;;;;;;16.37;14.90;;;20.50;85.60;;;;;;6130421;29;20243;-63
2022/04/15 14:36:56;;;;;;;16.13;14.70;;;20.50;85.70;;;;;;6129383;29;20239;-62
2022/04/15 14:40:00;;;;;;;16.37;14.83;;;20.70;85.40;;;;;;6129365;29;20239;-60
2022/04/15 14:43:03;;;;;;;15.90;14.60;;;20.80;84.80;;;;;;6129397;29;20570;-62
2022/04/15 14:46:08;;;;;;;17.70;16.20;;;20.80;84.70;;;;;;6129991;28;20241;-64
2022/04/15 14:49:11;;;;;;;15.43;14.13;;;20.80;84.90;;;;;;6130175;29;20577;-63
2022/04/15 14:52:14;;;;;;;15.37;14.07;;;20.80;84.70;;;;;;6130316;28;20600;-64
2022/04/15 14:55:19;;;;;;;17.27;15.73;;;21.00;84.20;;;;;;6130276;29;20624;-64
2022/04/15 14:58:23;;;;;;;16.00;14.77;;;20.90;84.30;;;;;;6129769;29;20255;-62
2022/04/15 15:01:26;;;;;;;15.17;13.87;;;20.90;84.00;;;;;;6130343;29;20235;-65
2022/04/15 15:04:29;;;;;;;16.10;14.80;;;20.70;84.30;;;;;;6129706;29;20242;-62
2022/04/15 15:07:52;;;;;;;16.00;14.60;;;20.50;85.20;;;;;;6130867;29;20725;-63
2022/04/15 15:10:56;;;;;;;16.50;14.97;;;20.20;85.90;;;;;;6129323;29;20239;-63
2022/04/15 15:14:01;;;;;;;17.83;16.27;;;19.80;88.70;;;;;;6131436;29;20232;-62
2022/04/15 15:17:05;;;;;;;18.03;16.47;;;19.80;89.00;;;;;;6120855;29;20250;-63
2022/04/15 15:20:11;;;;;;;17.47;15.90;;;19.80;89.30;;;;;;6130263;28;20275;-63
2022/04/15 15:23:14;;;;;;;16.57;15.17;;;19.70;89.50;;;;;;6129738;29;20228;-63
2022/04/15 15:29:51;;;;;;;16.57;15.17;;;19.30;90.40;;;;;;6129319;29;20247;-63
2022/04/15 15:32:54;;;;;;;15.90;14.47;;;19.20;90.40;;;;;;6129461;29;20338;-64
2022/04/15 15:35:57;;;;;;;15.33;13.83;;;19.30;90.30;;;;;;6129781;29;20574;-64
2022/04/15 15:39:00;;;;;;;15.23;14.03;;;19.50;90.20;;;;;;6142950;29;20246;-65
2022/04/15 15:42:06;;;;;;;15.53;14.00;;;19.60;90.00;;;;;;6129383;29;20228;-65
2022/04/15 15:45:10;;;;;;;15.17;13.67;;;19.80;89.70;;;;;;6105751;29;20204;-64
2022/04/15 15:48:13;;;;;;;15.30;13.93;;;19.90;89.30;;;;;;6105428;29;20538;-64
2022/04/15 15:51:16;;;;;;;13.53;12.40;;;19.80;87.90;;;;;;6106888;29;20616;-64
2022/04/15 15:54:20;;;;;;;14.97;13.77;;;19.90;87.40;;;;;;6105620;29;20248;-64
2022/04/15 15:57:24;;;;;;;15.43;13.97;;;19.90;87.80;;;;;;6127343;29;20242;-64
2022/04/15 16:00:28;;;;;;;16.37;14.97;;;19.70;88.80;;;;;;6128890;29;20223;-65
2022/04/15 16:03:31;;;;;;;14.17;13.07;;;19.60;88.90;;;;;;6131351;29;20323;-65
2022/04/15 16:06:35;;;;;;;15.03;13.73;;;19.50;89.50;;;;;;6130878;29;20231;-65
2022/04/15 16:09:38;;;;;;;15.10;13.60;;;19.50;89.80;;;;;;6130673;29;20240;-65
2022/04/15 16:12:43;;;;;;;14.90;13.57;;;19.50;89.90;;;;;;6131691;29;20246;-64
2022/04/15 16:15:48;;;;;;;15.70;14.40;;;19.60;90.10;;;;;;6131663;29;20291;-64
2022/04/15 16:18:51;;;;;;;16.40;15.03;;;19.60;90.30;;;;;;6123147;29;20235;-65
2022/04/15 16:21:54;;;;;;;18.80;17.27;;;19.60;90.60;;;;;;6131471;29;20232;-65
2022/04/15 16:24:58;;;;;;;17.07;15.57;;;19.50;91.00;;;;;;6129256;29;20247;-65